Kerteminde, Denmark
Current Conditions -  °F | °C
As of 8:50 AM on Friday 19 Dec 2014 (Local Time) from EKOD Reporting Station
Broken Clouds Broken Clouds  
Wind Chill: 42°   Ceiling: 4500
Heat Index: 48°   Visibility: 6mi
Dew Point: 48°   Wind: 15mph
Humidity: 100%   Direction: 250°WSW
Pressure: 29.44"   Gusts: NA
Location:  55.45°N, 10.66°E
Report Text: EKOD 190750Z 25013KT 9999 SCT010 BKN045 09/09 Q0997
Loading
Personal Weather Stations






























Interactive Weather Map New forecast layout! Learn more

10-Day Weather Forecast

Advertisements
Track Severe Weather on mobile